Russian River, California
Current Conditions -  °F | °C
As of 1:53 PM on Wednesday 22 Oct 2014 (Local Time) from KSTS Reporting Station
Broken Clouds Broken Clouds  
Wind Chill: 73°   Ceiling: 25000
Heat Index: 73°   Visibility: 10mi
Dew Point: 51°   Wind: 0mph
Humidity: 46%   Direction: NA
Pressure: 30.02"   Gusts: NA
Location:  38.4654°N, 123.012°W
Report Text: KSTS 222053Z 00000KT 10SM SCT050 BKN250 23/11 A3002 RMK AO2 SLP160 T02280106 58018
Loading
Personal Weather Stations






























Interactive Weather Map
Tropical Storm Tracking
New forecast layout! Learn more

10-Day Weather Forecast

Advertisements
Track Severe Weather on mobile